Flight Track Log - Related Links

Times and Time Zones

All times are in EDT time to prevent confusion due to time zone crossing. See the SKW2901 flight status page for this flight to view local times or setup timezone preferences in your user account.

Time Position Orientation Groundspeed Altitude Reporting Facility
EDT Latitude Longitude Course Direction KTS km/h feet Rate Location/Type
Sun 10:26:55 40.8075 -111.9619 299° West 258 478 4.900  Level Salt Lake Center
Sun 10:28:09 40.8375 -112.0339 299° West 234 433 6.900 1.911 Climbing Salt Lake Center
Sun 10:29:10 40.8239 -112.1311 260° West 266 492 9.200 2.098 Climbing Salt Lake Center
Sun 10:30:12 40.8028 -112.2306 254° West 282 523 11.200 1.756 Climbing Salt Lake Center
Sun 10:31:13 40.7264 -112.2806 206° Southwest 307 568 12.800 1.721 Climbing Salt Lake Center
Sun 10:32:14 40.6397 -112.3000 190° South 316 586 14.700 1.869 Climbing Salt Lake Center
Sun 10:33:15 40.5506 -112.3142 187° South 323 599 16.600 1.872 Climbing Salt Lake Center
Sun 10:34:19 40.4419 -112.3372 189° South 328 607 18.600 1.805 Climbing Salt Lake Center
Sun 10:35:18 40.3503 -112.3578 190° South 334 618 20.300 1.550 Climbing Salt Lake Center
Sun 10:36:19 40.2667 -112.4094 205° Southwest 335 621 21.700 1.073 Climbing Salt Lake Center
Sun 10:37:21 40.1817 -112.4689 208° Southwest 347 642 22.500 829 Climbing Salt Lake Center
Sun 10:38:22 40.0947 -112.5300 208° Southwest 357 661 23.400 934 Climbing Salt Lake Center
Sun 10:39:23 39.9981 -112.5650 196° South 373 690 24.400 1.024 Climbing Salt Lake Center
Sun 10:40:25 39.8956 -112.5614 178° South 370 686 25.500 976 Climbing Salt Lake Center
Sun 10:41:26 39.7922 -112.5581 179° South 370 686 26.400 787 Climbing Salt Lake Center
Sun 10:42:27 39.6856 -112.5528 178° South 381 705 27.100 683 Climbing Salt Lake Center
Sun 10:43:29 39.5553 -112.5481 178° South 389 721 27.800 829 Climbing Salt Lake Center
Sun 10:44:30 39.4456 -112.5417 177° South 393 727 28.800 927 Climbing Salt Lake Center
Sun 10:45:32 39.3369 -112.5375 178° South 392 726 29.700 878 Climbing Salt Lake Center
Sun 10:46:33 39.2203 -112.5336 179° South 387 716 30.600 829 Climbing Salt Lake Center
Sun 10:47:35 39.1139 -112.5281 178° South 383 710 31.400 976 Climbing Salt Lake Center
Sun 10:48:36 39.0100 -112.5228 178° South 376 697 32.600 787 Climbing Salt Lake Center
Sun 10:49:37 38.9089 -112.5192 178° South 365 676 33.000 195 Climbing Salt Lake Center
Sun 10:50:39 38.8050 -112.5158 179° South 373 690 33.000  Level Salt Lake Center
Sun 10:51:40 38.6972 -112.5114 178° South 384 711 33.000  Level Salt Lake Center
Sun 10:52:42 38.5878 -112.5078 179° South 392 726 33.000  Level Salt Lake Center
Sun 10:53:43 38.4778 -112.5028 178° South 396 734 33.000  Level Salt Lake Center
Sun 10:54:45 38.3664 -112.4983 178° South 399 739 33.000  Level Salt Lake Center
Sun 10:55:46 38.2325 -112.4917 178° South 400 740 33.000  Level Salt Lake Center
Sun 10:56:48 38.1203 -112.4867 178° South 402 745 33.000  Level Salt Lake Center
Sun 10:57:49 38.0083 -112.4817 178° South 402 745 33.000  Level Salt Lake Center
Sun 10:58:51 37.8964 -112.4769 178° South 401 742 33.000  Level Salt Lake Center
Sun 10:59:52 37.7825 -112.4717 178° South 405 750 33.000  Level Salt Lake Center
Sun 11:00:54 37.6700 -112.4656 178° South 403 747 33.000  Level Salt Lake Center
Sun 11:01:56 37.5553 -112.4603 178° South 405 750 33.000  Level Salt Lake Center
Sun 11:02:57 37.4414 -112.4550 178° South 406 752 33.000  Level Salt Lake Center
Sun 11:04:06 37.3036 -112.4506 179° South 406 752 33.000  Level Los Angeles Center
Sun 11:05:07 37.1894 -112.4450 178° South 408 756 33.000  Level Los Angeles Center
Sun 11:06:08 37.0758 -112.4400 178° South 409 758 33.000  Level Los Angeles Center
Sun 11:07:10 36.9611 -112.4358 178° South 411 761 33.000  Level Los Angeles Center
Sun 11:08:11 36.8469 -112.4331 179° South 410 760 33.000  Level Los Angeles Center
Sun 11:09:13 36.7322 -112.4281 178° South 411 761 33.000  Level Los Angeles Center
Sun 11:10:14 36.6183 -112.4222 178° South 410 760 33.000  Level Los Angeles Center
Sun 11:11:15 36.5044 -112.4189 179° South 409 758 33.000  Level Los Angeles Center
Sun 11:12:17 36.3669 -112.4122 178° South 410 760 33.000 -242 Level Los Angeles Center
Sun 11:13:19 36.2528 -112.4083 178° South 411 761 32.500 -732 Descending Los Angeles Center
Sun 11:14:20 36.1378 -112.4036 178° South 411 761 31.500 -976 Descending Los Angeles Center
Sun 11:15:22 36.0231 -112.4031 180° South 413 764 30.500 -1.065 Descending Los Angeles Center
Sun 11:16:24 35.8964 -112.4092 182° South 410 760 29.300 -667 Descending Los Angeles Center
Sun 11:17:37 35.7842 -112.4147 182° South 405 750 29.000 -122 Descending Los Angeles Center
Sun 11:18:51 35.6278 -112.4228 182° South 402 745 29.000  Level Los Angeles Center
Sun 11:19:53 35.5167 -112.4292 183° South 400 740 29.000  Level Los Angeles Center
Sun 11:20:54 35.4047 -112.4386 184° South 401 742 29.000  Level Los Angeles Center
Sun 11:21:56 35.2908 -112.4139 170° South 410 760 29.000  Level Los Angeles Center
Sun 11:22:58 35.1778 -112.3906 170° South 410 760 29.000 -537 Level Los Angeles Center
Sun 11:23:59 35.0653 -112.3647 169° South 410 760 27.900 -1.415 Descending Los Angeles Center
Sun 11:25:01 34.9333 -112.3378 170° South 402 745 26.100 -1.612 Descending Los Angeles Center
Sun 11:26:13 34.8064 -112.3117 170° South 393 727 24.300 -1.522 Descending Albuquerque Center
Sun 11:27:15 34.7003 -112.2886 170° South 388 719 22.700 -1.463 Descending Albuquerque Center
Sun 11:28:16 34.5992 -112.2658 169° South 380 703 21.300 -1.463 Descending Albuquerque Center
Sun 11:29:18 34.5042 -112.2444 169° South 365 676 19.700 -1.403 Descending Albuquerque Center
Sun 11:30:20 34.4111 -112.2228 169° South 352 652 18.400 -1.258 Descending Albuquerque Center
Sun 11:31:22 34.3200 -112.1981 167° South 344 637 17.100 -1.220 Descending Albuquerque Center
Sun 11:32:23 34.2353 -112.1764 168° South 329 610 15.900 -1.268 Descending Albuquerque Center
Sun 11:33:25 34.1378 -112.1508 168° South 303 562 14.500 -1.258 Descending Albuquerque Center
Sun 11:34:27 34.0558 -112.1406 174° South 297 550 13.300 -1.122 Descending Albuquerque Center
Sun 11:35:28 33.9786 -112.1486 185° South 283 525 12.200 -1.171 Descending Albuquerque Center
Sun 11:36:30 33.9022 -112.1564 185° South 278 515 10.900 -1.306 Descending Albuquerque Center
Sun 11:37:32 33.8289 -112.1736 191° South 271 502 9.500 -1.415 Descending Albuquerque Center
Sun 11:38:33 33.7411 -112.1919 190° South 269 499 8.000 -1.024 Descending Albuquerque Center
Sun 11:39:35 33.6706 -112.2061 189° South 259 480 7.400 -1.016 Descending Albuquerque Center
Sun 11:40:37 33.5975 -112.2147 186° South 265 491 5.900 -1.512 Descending Albuquerque Center
Sun 11:41:38 33.5264 -112.2075 175° South 259 480 4.300 -1.073 Descending Albuquerque Center
Sun 11:42:40 33.4681 -112.1842 162° South 230 426 3.700 -677 Descending Albuquerque Center
Sun 11:43:42 33.4444 -112.1200 114° Southeast 212 393 2.900 -927 Descending Albuquerque Center
Sun 11:44:43 33.4403 -112.0631 95° East 170 315 1.800 -878 Descending Albuquerque Center
Sun 11:45:45 33.4403 -112.0189 90° East 147 272 1.100 -677 Descending Albuquerque Center
Sun 11:47:00 33.4343 -112.0116 270° West  Level Estimated

Login

Don't have an account? Register now (free) for customized features, flight alerts, and more!